Time;durP1;ratioP1;P1;durP2;ratioP2;P2;SDS_P1;SDS_P2;PMS_P1;PMS_P2;Temp;Humidity;BMP_temperature;BMP_pressure;BME280_temperature;BME280_humidity;BME280_pressure;Samples;Min_cycle;Max_cycle;Signal;HPM_P1;HPM_P2
2023/12/11 00:01:08;;;;;;;6.33;5.70;;;;;;;5.11;64.17;94866.34;4977757;28;20216;-67
2023/12/11 00:03:34;;;;;;;6.90;5.83;;;;;;;5.28;63.48;94876.22;4972232;28;20284;-73
2023/12/11 00:05:59;;;;;;;7.80;6.00;;;;;;;5.17;63.99;94886.69;5005825;28;20238;-73
2023/12/11 00:08:24;;;;;;;7.03;5.90;;;;;;;5.15;64.04;94883.38;4987093;28;20247;-73
2023/12/11 00:10:50;;;;;;;8.03;6.20;;;;;;;5.14;64.20;94886.13;4989083;28;20330;-74
2023/12/11 00:13:15;;;;;;;7.00;6.00;;;;;;;5.16;63.88;94886.78;4989796;28;20223;-71
2023/12/11 00:15:41;;;;;;;7.10;6.20;;;;;;;5.15;64.17;94891.19;4980625;28;20216;-71
2023/12/11 00:18:06;;;;;;;6.77;5.97;;;;;;;5.25;63.96;94889.50;4966538;28;20219;-72
2023/12/11 00:20:32;;;;;;;8.67;6.00;;;;;;;5.28;63.98;94896.25;4982085;28;20301;-68
2023/12/11 00:22:58;;;;;;;7.30;6.47;;;;;;;5.47;63.36;94898.22;4984660;28;20229;-69
2023/12/11 00:25:24;;;;;;;6.40;5.70;;;;;;;5.54;63.28;94899.38;4980647;28;20220;-71
2023/12/11 00:27:49;;;;;;;6.67;5.90;;;;;;;5.57;63.05;94895.69;4978508;28;20219;-75
2023/12/11 00:30:15;;;;;;;9.80;5.97;;;;;;;5.58;62.88;94905.16;4984983;28;20285;-76
2023/12/11 00:32:43;;;;;;;7.53;6.20;;;;;;;5.66;62.94;94908.81;4986709;28;20203;-73
2023/12/11 00:35:09;;;;;;;8.87;7.27;;;;;;;5.60;62.94;94916.31;4986770;28;20289;-75
2023/12/11 00:37:34;;;;;;;7.30;6.07;;;;;;;5.45;63.02;94908.78;4995632;28;20230;-77
2023/12/11 00:39:59;;;;;;;7.57;6.60;;;;;;;5.53;63.25;94902.94;4990998;28;20273;-77
2023/12/11 00:42:25;;;;;;;7.83;5.80;;;;;;;5.49;63.48;94906.75;4998597;28;20190;-74
2023/12/11 00:44:50;;;;;;;7.67;6.20;;;;;;;5.53;63.65;94905.53;4983400;28;20196;-75
2023/12/11 00:47:16;;;;;;;8.93;6.97;;;;;;;5.63;63.34;94896.03;4965690;28;20307;-75
2023/12/11 00:49:42;;;;;;;9.07;7.17;;;;;;;5.69;63.21;94908.59;4979825;28;20219;-75
2023/12/11 00:52:08;;;;;;;8.93;7.10;;;;;;;5.67;63.19;94913.09;4997925;28;20307;-75
2023/12/11 00:54:33;;;;;;;8.03;6.90;;;;;;;5.62;63.32;94911.81;4987888;28;20286;-75
2023/12/11 00:56:58;;;;;;;8.37;6.93;;;;;;;5.63;63.35;94909.06;4988666;28;20287;-75
2023/12/11 00:59:24;;;;;;;8.17;6.57;;;;;;;5.53;63.91;94911.59;4992352;28;20218;-74
2023/12/11 01:01:49;;;;;;;7.57;6.53;;;;;;;5.57;63.75;94899.13;4989470;28;20223;-74
2023/12/11 01:04:15;;;;;;;8.43;6.80;;;;;;;5.57;63.43;94906.13;4998990;28;20234;-74
2023/12/11 01:06:41;;;;;;;8.53;6.90;;;;;;;5.20;64.63;94907.28;4985529;28;20224;-74
2023/12/11 01:09:07;;;;;;;9.40;7.03;;;;;;;5.19;65.00;94905.66;4990429;28;20277;-74
2023/12/11 01:11:32;;;;;;;7.23;5.90;;;;;;;5.09;65.24;94909.94;5009266;28;20267;-74
2023/12/11 01:13:58;;;;;;;7.60;6.80;;;;;;;5.11;65.33;94900.22;4986339;28;20226;-74
2023/12/11 01:16:23;;;;;;;7.63;6.67;;;;;;;5.34;64.96;94908.78;4982836;28;20234;-74
2023/12/11 01:18:49;;;;;;;9.93;6.63;;;;;;;5.42;64.49;94905.56;4990645;28;20222;-74
2023/12/11 01:21:14;;;;;;;8.50;6.57;;;;;;;5.27;64.45;94898.03;5008439;28;20193;-74
2023/12/11 01:23:40;;;;;;;7.03;6.20;;;;;;;5.20;64.56;94903.88;4990032;28;20219;-73
2023/12/11 01:26:05;;;;;;;7.33;5.93;;;;;;;5.26;64.79;94904.19;4987151;28;20301;-72
2023/12/11 01:28:31;;;;;;;8.43;6.73;;;;;;;5.36;64.32;94900.88;4984518;28;20223;-73
2023/12/11 01:30:56;;;;;;;7.17;6.23;;;;;;;5.50;63.86;94903.19;4985022;28;20250;-72
2023/12/11 01:33:22;;;;;;;8.07;6.77;;;;;;;5.53;63.68;94897.72;4985180;28;20183;-73
2023/12/11 01:35:47;;;;;;;6.67;5.87;;;;;;;5.57;63.62;94899.13;5003508;28;20181;-73
2023/12/11 01:38:13;;;;;;;6.90;6.20;;;;;;;5.55;63.66;94893.22;5000353;28;20220;-73
2023/12/11 01:40:39;;;;;;;6.50;5.87;;;;;;;5.58;63.36;94897.34;5004072;28;20289;-72
2023/12/11 01:43:15;;;;;;;6.93;5.97;;;;;;;5.62;63.13;94889.16;4982869;28;20222;-74
2023/12/11 01:45:41;;;;;;;7.37;5.60;;;;;;;5.59;63.35;94886.81;4985373;28;20237;-74
2023/12/11 01:48:11;;;;;;;8.27;6.17;;;;;;;5.58;63.39;94884.31;4984302;28;20187;-74
2023/12/11 01:50:38;;;;;;;7.30;5.83;;;;;;;5.59;63.40;94885.97;5004781;28;20265;-74
2023/12/11 01:53:05;;;;;;;6.80;5.80;;;;;;;5.63;63.37;94884.75;4991763;28;20236;-74
2023/12/11 01:55:33;;;;;;;8.50;6.20;;;;;;;5.58;63.05;94879.09;4989138;28;20281;-74
2023/12/11 01:58:00;;;;;;;7.73;6.10;;;;;;;5.56;63.20;94886.22;4982067;28;20223;-75
2023/12/11 02:00:26;;;;;;;7.27;5.87;;;;;;;5.56;63.44;94884.44;4980935;28;20251;-74
2023/12/11 02:02:51;;;;;;;7.13;6.00;;;;;;;5.55;63.23;94882.78;4989691;28;20193;-74
2023/12/11 02:05:17;;;;;;;7.40;6.40;;;;;;;5.62;63.38;94875.28;4989208;28;20239;-74
2023/12/11 02:07:43;;;;;;;13.83;10.23;;;;;;;5.44;64.02;94885.44;4971221;28;20274;-74
2023/12/11 02:10:09;;;;;;;19.73;14.07;;;;;;;5.46;63.83;94880.94;4971531;28;20226;-75
2023/12/11 02:12:35;;;;;;;20.87;15.43;;;;;;;5.33;64.57;94886.28;4981266;28;20186;-74
2023/12/11 02:15:00;;;;;;;20.73;14.57;;;;;;;5.39;64.67;94884.97;4982868;28;20191;-75
2023/12/11 02:17:26;;;;;;;18.23;14.13;;;;;;;5.22;64.77;94870.69;4991286;28;20321;-75
2023/12/11 02:19:52;;;;;;;18.47;14.60;;;;;;;5.14;65.33;94873.09;4975162;28;20279;-75
2023/12/11 02:22:17;;;;;;;20.37;15.73;;;;;;;5.05;65.88;94875.47;4974733;28;20219;-74
2023/12/11 02:24:56;;;;;;;21.67;16.37;;;;;;;5.08;65.75;94872.63;4983939;28;20179;-74
2023/12/11 02:27:23;;;;;;;23.57;18.50;;;;;;;4.95;66.14;94884.13;4984648;28;20180;-74
2023/12/11 02:29:50;;;;;;;24.37;17.60;;;;;;;5.02;65.98;94877.47;4985229;28;20233;-74
2023/12/11 02:32:16;;;;;;;21.80;16.20;;;;;;;5.08;65.68;94872.63;4981980;28;20223;-74
2023/12/11 02:34:42;;;;;;;23.10;18.97;;;;;;;5.00;65.80;94869.78;4980111;28;20274;-74
2023/12/11 02:37:07;;;;;;;21.03;17.87;;;;;;;4.97;65.91;94877.84;4984814;28;20234;-74
2023/12/11 02:39:32;;;;;;;22.20;18.17;;;;;;;4.96;65.82;94878.78;4982546;28;20330;-74
2023/12/11 02:41:58;;;;;;;20.97;17.93;;;;;;;4.92;66.08;94889.56;4989117;28;20183;-74
2023/12/11 02:44:23;;;;;;;20.20;16.93;;;;;;;4.86;66.01;94890.88;4986631;28;20223;-75
2023/12/11 02:46:49;;;;;;;17.23;14.23;;;;;;;4.95;65.95;94887.56;4974428;28;20230;-75
2023/12/11 02:49:14;;;;;;;13.40;11.73;;;;;;;4.90;65.69;94892.31;4973721;28;20317;-74
2023/12/11 02:51:40;;;;;;;8.03;6.90;;;;;;;4.78;65.98;94886.25;4983478;28;20192;-74
2023/12/11 02:54:05;;;;;;;11.70;8.30;;;;;;;4.64;66.63;94889.94;4985840;28;20183;-74
2023/12/11 02:56:31;;;;;;;6.90;6.20;;;;;;;4.70;66.02;94873.00;4969324;28;20312;-74
2023/12/11 02:58:56;;;;;;;6.67;5.90;;;;;;;4.82;65.74;94882.47;4985847;28;20225;-74
2023/12/11 03:01:21;;;;;;;6.43;5.73;;;;;;;4.99;65.21;94888.13;4975824;28;20250;-74
2023/12/11 03:03:47;;;;;;;5.50;4.97;;;;;;;5.02;64.98;94888.72;4974837;28;20183;-74
2023/12/11 03:06:18;;;;;;;4.73;4.33;;;;;;;4.92;65.01;94885.19;4938306;28;1177734;-75
2023/12/11 03:08:44;;;;;;;4.70;4.30;;;;;;;5.05;64.62;94880.69;4995216;28;20226;-75
2023/12/11 03:11:10;;;;;;;4.30;3.90;;;;;;;5.06;64.30;94884.09;4987448;28;20222;-75
2023/12/11 03:13:35;;;;;;;3.87;3.40;;;;;;;5.20;63.93;94880.41;4990272;28;20227;-75
2023/12/11 03:16:01;;;;;;;4.23;3.60;;;;;;;5.24;63.68;94880.03;4987896;28;20244;-74
2023/12/11 03:18:26;;;;;;;4.20;3.80;;;;;;;5.31;63.25;94875.97;4964364;28;20192;-75
2023/12/11 03:20:52;;;;;;;4.27;3.37;;;;;;;5.24;63.16;94872.22;4986523;28;20227;-74
2023/12/11 03:23:17;;;;;;;3.70;3.40;;;;;;;5.28;62.99;94867.56;4986962;28;20227;-74
2023/12/11 03:25:42;;;;;;;3.50;3.20;;;;;;;5.33;62.91;94867.22;4994344;28;20239;-75
2023/12/11 03:28:08;;;;;;;3.77;3.23;;;;;;;5.27;63.24;94869.38;4988690;28;20226;-74
2023/12/11 03:30:33;;;;;;;3.47;3.17;;;;;;;5.22;63.34;94874.13;4990843;28;20284;-74
2023/12/11 03:32:59;;;;;;;3.87;3.40;;;;;;;5.35;62.95;94870.53;4987882;28;20218;-73
2023/12/11 03:35:24;;;;;;;3.73;3.23;;;;;;;5.26;63.25;94875.50;4986606;28;20215;-74
2023/12/11 03:37:50;;;;;;;4.13;3.70;;;;;;;5.26;62.84;94875.50;4983169;28;20266;-74
2023/12/11 03:40:15;;;;;;;4.10;3.63;;;;;;;5.21;63.42;94869.88;4987724;28;20245;-73
2023/12/11 03:42:40;;;;;;;3.97;3.67;;;;;;;5.19;63.04;94871.75;4982341;28;20187;-73
2023/12/11 03:45:06;;;;;;;3.73;3.40;;;;;;;5.20;63.02;94873.41;4989086;28;20223;-73
2023/12/11 03:47:31;;;;;;;4.30;3.90;;;;;;;5.34;62.75;94876.69;4992379;28;20219;-73
2023/12/11 03:49:57;;;;;;;4.00;3.53;;;;;;;5.26;62.85;94865.09;4969885;28;20230;-73
2023/12/11 03:52:22;;;;;;;3.87;3.43;;;;;;;5.28;62.82;94867.56;4987586;28;20223;-73
2023/12/11 03:54:48;;;;;;;4.60;3.83;;;;;;;5.31;62.39;94865.53;4986629;28;20256;-73
2023/12/11 03:57:13;;;;;;;5.30;4.07;;;;;;;5.23;62.95;94864.50;4987276;28;20192;-74
2023/12/11 03:59:39;;;;;;;4.57;3.87;;;;;;;5.13;63.13;94867.00;4989050;28;20223;-73
2023/12/11 04:02:05;;;;;;;4.60;4.10;;;;;;;5.00;63.91;94871.56;4995131;28;20226;-74
2023/12/11 04:04:31;;;;;;;4.67;4.27;;;;;;;4.85;64.54;94877.03;4993448;28;20261;-73
2023/12/11 04:06:56;;;;;;;4.73;4.27;;;;;;;4.97;64.23;94874.41;4988152;28;20223;-72
2023/12/11 04:09:22;;;;;;;5.07;4.10;;;;;;;4.98;64.23;94870.84;4989551;28;20287;-74
2023/12/11 04:11:47;;;;;;;4.77;4.37;;;;;;;5.04;63.82;94872.97;4970504;28;20220;-74
2023/12/11 04:14:13;;;;;;;4.80;4.40;;;;;;;4.85;64.58;94866.59;4994661;28;20224;-73
2023/12/11 04:16:42;;;;;;;5.23;4.73;;;;;;;4.85;64.84;94866.59;4988944;28;20233;-73
2023/12/11 04:19:07;;;;;;;5.27;4.77;;;;;;;4.75;65.04;94880.47;4987762;28;20250;-74
2023/12/11 04:21:33;;;;;;;8.07;7.00;;;;;;;4.86;65.14;94888.28;4992042;28;20196;-73
2023/12/11 04:23:58;;;;;;;10.83;8.10;;;;;;;4.80;65.19;94870.53;4992170;28;20203;-74
2023/12/11 04:26:24;;;;;;;10.17;8.23;;;;;;;4.84;65.10;94874.56;4992799;28;20223;-74
2023/12/11 04:28:49;;;;;;;9.90;8.47;;;;;;;4.76;65.12;94876.94;4988059;28;20223;-74
2023/12/11 04:31:15;;;;;;;12.53;8.90;;;;;;;4.49;66.35;94877.28;4984771;28;20222;-75
2023/12/11 04:33:40;;;;;;;11.57;9.90;;;;;;;4.79;65.67;94876.69;4998459;28;20262;-75
2023/12/11 04:36:08;;;;;;;10.47;9.30;;;;;;;4.79;65.44;94881.91;4978878;28;20195;-75
2023/12/11 04:38:33;;;;;;;11.37;9.77;;;;;;;4.80;65.45;94878.34;4979929;28;20277;-75
2023/12/11 04:40:59;;;;;;;13.37;10.47;;;;;;;4.86;65.07;94886.50;4980107;28;20215;-75
2023/12/11 04:43:24;;;;;;;14.27;10.73;;;;;;;4.88;65.38;94885.56;4976036;28;20242;-75
2023/12/11 04:45:50;;;;;;;14.20;11.53;;;;;;;4.79;65.57;94881.91;4970004;28;20227;-76
2023/12/11 04:48:15;;;;;;;14.90;11.03;;;;;;;4.61;66.45;94878.94;4979632;28;20190;-75
2023/12/11 04:50:41;;;;;;;13.50;10.93;;;;;;;4.74;66.27;94881.44;4999931;28;20254;-73
2023/12/11 04:53:06;;;;;;;12.87;10.97;;;;;;;4.85;65.77;94892.66;4977955;28;20249;-73
2023/12/11 04:55:33;;;;;;;14.03;11.57;;;;;;;4.94;65.70;94885.06;4971783;28;20232;-72
2023/12/11 04:57:58;;;;;;;13.43;10.53;;;;;;;5.05;65.33;94890.25;4971891;28;20223;-74
2023/12/11 05:00:23;;;;;;;13.33;9.83;;;;;;;4.88;65.67;94888.16;4987517;28;20187;-74
2023/12/11 05:02:49;;;;;;;12.60;10.03;;;;;;;4.62;66.64;94881.44;4970748;28;20234;-73
2023/12/11 05:05:16;;;;;;;11.00;9.17;;;;;;;4.79;65.82;94882.72;4981158;28;20234;-76
2023/12/11 05:07:42;;;;;;;12.67;9.53;;;;;;;4.99;65.66;94878.53;4989036;28;20243;-75
2023/12/11 05:10:08;;;;;;;11.20;9.70;;;;;;;4.96;65.42;94883.16;4988435;28;20241;-77
2023/12/11 05:12:33;;;;;;;13.30;10.17;;;;;;;4.93;65.76;94879.03;4989648;28;20183;-75
2023/12/11 05:15:00;;;;;;;11.57;9.47;;;;;;;5.01;65.44;94886.25;4989030;28;20229;-77
2023/12/11 05:17:25;;;;;;;8.67;7.37;;;;;;;5.04;64.75;94883.41;4973322;28;20264;-76
2023/12/11 05:19:51;;;;;;;10.87;8.70;;;;;;;5.04;64.28;94886.00;4981519;28;20250;-75
2023/12/11 05:22:16;;;;;;;10.40;8.70;;;;;;;4.97;64.30;94877.00;4988067;28;20326;-78
2023/12/11 05:24:42;;;;;;;10.60;8.70;;;;;;;4.97;64.48;94884.81;5004062;28;20225;-78
2023/12/11 05:27:08;;;;;;;11.57;8.97;;;;;;;4.97;64.39;94895.25;4986700;28;20203;-78
2023/12/11 05:29:34;;;;;;;10.27;9.13;;;;;;;4.99;64.71;94888.97;4985557;28;20220;-77
2023/12/11 05:31:59;;;;;;;10.33;7.93;;;;;;;5.05;64.11;94893.72;4988632;28;20223;-78
2023/12/11 05:34:25;;;;;;;9.00;7.23;;;;;;;4.95;64.35;94904.97;4985064;28;20298;-76
2023/12/11 05:36:50;;;;;;;9.60;7.70;;;;;;;5.02;64.07;94898.31;4984673;28;20262;-76
2023/12/11 05:39:16;;;;;;;8.90;7.00;;;;;;;5.07;63.87;94898.78;4984675;28;20191;-78
2023/12/11 05:41:41;;;;;;;9.27;7.03;;;;;;;5.05;63.69;94898.06;4992622;28;20217;-76
2023/12/11 05:44:07;;;;;;;8.87;7.33;;;;;;;5.07;63.66;94901.41;4985763;28;20269;-77
2023/12/11 05:46:33;;;;;;;8.83;7.83;;;;;;;5.09;63.54;94902.09;4978118;28;20215;-75
2023/12/11 05:48:58;;;;;;;8.53;7.33;;;;;;;5.09;63.96;94909.94;4977001;28;20224;-76
2023/12/11 05:51:24;;;;;;;8.77;7.00;;;;;;;5.07;63.86;94910.03;4970321;28;20188;-76
2023/12/11 05:53:50;;;;;;;9.97;7.77;;;;;;;5.15;64.21;94903.41;4985261;28;20231;-77
2023/12/11 05:56:15;;;;;;;11.03;8.07;;;;;;;5.27;63.70;94905.88;4982528;28;20289;-76
2023/12/11 05:58:40;;;;;;;9.87;7.20;;;;;;;5.16;63.92;94908.50;5001265;28;20219;-75
2023/12/11 06:01:06;;;;;;;11.53;9.53;;;;;;;5.27;63.50;94915.47;4983938;28;20223;-78
2023/12/11 06:03:32;;;;;;;8.30;6.77;;;;;;;5.28;63.37;94915.34;4994565;28;20274;-77
2023/12/11 06:06:00;;;;;;;8.47;7.03;;;;;;;5.11;64.19;94921.06;4989013;28;20227;-77
2023/12/11 06:08:26;;;;;;;9.93;7.90;;;;;;;5.19;64.22;94921.28;4993806;28;20214;-78
2023/12/11 06:10:51;;;;;;;9.00;7.83;;;;;;;5.22;64.48;94915.00;4987946;28;20230;-78
2023/12/11 06:13:17;;;;;;;11.13;8.20;;;;;;;5.18;64.31;94916.19;4987386;28;20214;-77
2023/12/11 06:15:43;;;;;;;9.70;8.47;;;;;;;5.29;64.40;94916.16;4986348;28;20191;-77
2023/12/11 06:18:08;;;;;;;10.90;8.43;;;;;;;5.23;64.58;94914.03;4991322;28;20201;-77
2023/12/11 06:20:34;;;;;;;9.03;7.80;;;;;;;5.11;64.64;94928.06;4985412;28;20219;-76
2023/12/11 06:22:59;;;;;;;12.00;8.53;;;;;;;5.16;64.97;94926.75;4987504;28;20228;-75
2023/12/11 06:25:25;;;;;;;10.00;7.90;;;;;;;5.27;64.89;94923.28;4983986;28;20285;-79
2023/12/11 06:27:50;;;;;;;8.93;7.23;;;;;;;5.34;64.34;94928.81;4984674;28;20277;-73
2023/12/11 06:30:16;;;;;;;9.37;7.47;;;;;;;5.48;64.06;94921.56;4986197;28;20189;-72
2023/12/11 06:32:41;;;;;;;7.90;6.47;;;;;;;5.38;64.20;94920.66;4983833;28;20318;-72
2023/12/11 06:35:07;;;;;;;8.00;7.20;;;;;;;5.47;63.66;94926.91;4989548;28;20219;-74
2023/12/11 06:37:32;;;;;;;8.23;6.57;;;;;;;5.34;64.43;94921.81;4984424;28;20238;-74
2023/12/11 06:39:57;;;;;;;7.90;6.20;;;;;;;5.34;64.62;94914.00;4983827;28;20302;-75
2023/12/11 06:42:23;;;;;;;7.77;5.97;;;;;;;5.52;63.99;94922.16;4988741;28;20214;-75
2023/12/11 06:44:48;;;;;;;7.97;7.03;;;;;;;5.44;64.07;94921.94;4980168;28;20229;-75
2023/12/11 06:47:14;;;;;;;7.90;6.97;;;;;;;5.55;63.00;94927.13;4984364;28;20214;-75
2023/12/11 06:49:42;;;;;;;10.63;8.00;;;;;;;5.57;63.56;94924.41;4987765;28;20238;-75
2023/12/11 06:52:08;;;;;;;8.93;6.47;;;;;;;5.65;63.11;94927.22;4986425;28;20219;-73
2023/12/11 06:54:33;;;;;;;6.63;5.60;;;;;;;5.65;63.00;94920.22;4988376;28;20285;-74
2023/12/11 06:56:59;;;;;;;6.47;5.60;;;;;;;5.73;62.53;94930.84;4987890;28;20266;-73
2023/12/11 06:59:24;;;;;;;7.80;5.60;;;;;;;5.79;62.45;94929.53;4992567;28;20250;-74
2023/12/11 07:01:50;;;;;;;7.33;6.00;;;;;;;5.71;62.64;94929.31;4989640;28;20231;-74
2023/12/11 07:04:16;;;;;;;7.80;6.40;;;;;;;5.87;62.00;94936.72;4983980;28;20231;-73
2023/12/11 07:06:41;;;;;;;13.17;6.50;;;;;;;5.99;61.62;94947.97;4983803;28;20195;-75
2023/12/11 07:09:07;;;;;;;7.37;6.27;;;;;;;6.02;61.09;94948.56;4995366;28;20223;-76
2023/12/11 07:11:33;;;;;;;11.13;5.97;;;;;;;6.15;60.62;94951.00;4980641;28;20284;-76
2023/12/11 07:13:58;;;;;;;11.97;7.00;;;;;;;6.12;60.70;94959.06;4974568;28;20223;-74
2023/12/11 07:16:24;;;;;;;11.47;6.40;;;;;;;5.88;60.66;94956.63;4974828;28;20237;-77
2023/12/11 07:18:49;;;;;;;8.40;6.30;;;;;;;5.80;61.71;94957.28;4980486;28;20231;-75
2023/12/11 07:21:15;;;;;;;9.87;7.03;;;;;;;5.93;61.10;94963.19;4985575;28;20187;-75
2023/12/11 07:23:40;;;;;;;9.13;6.30;;;;;;;6.03;60.82;94962.44;4964314;28;20259;-78
2023/12/11 07:26:09;;;;;;;8.33;6.40;;;;;;;6.19;60.07;94963.66;4987098;28;20223;-80
2023/12/11 07:28:36;;;;;;;6.73;5.63;;;;;;;6.09;59.72;94962.75;4990173;28;20267;-71
2023/12/11 07:31:03;;;;;;;8.37;5.43;;;;;;;6.13;59.28;94958.94;4979907;28;20223;-75
2023/12/11 07:33:28;;;;;;;8.20;6.20;;;;;;;6.11;59.25;94966.06;4963477;28;20191;-72
2023/12/11 07:35:54;;;;;;;7.43;5.70;;;;;;;6.09;59.62;94972.38;4983717;28;20246;-73
2023/12/11 07:38:19;;;;;;;6.67;5.40;;;;;;;6.19;59.68;94978.50;4984219;28;20235;-71
2023/12/11 07:40:45;;;;;;;6.97;5.33;;;;;;;6.21;59.54;94967.94;4991974;28;20241;-74
2023/12/11 07:43:11;;;;;;;7.17;5.10;;;;;;;6.27;59.10;94972.66;4986923;28;20258;-75
2023/12/11 07:45:37;;;;;;;8.83;5.47;;;;;;;6.16;59.65;94978.75;4984083;28;20191;-73
2023/12/11 07:48:03;;;;;;;7.97;5.40;;;;;;;6.14;59.18;94984.09;4987594;28;20202;-74
2023/12/11 07:50:29;;;;;;;6.47;5.03;;;;;;;6.21;59.29;94975.78;4997599;28;20237;-73
2023/12/11 07:52:54;;;;;;;6.90;5.40;;;;;;;6.20;59.08;94980.13;4986951;28;20269;-73
2023/12/11 07:55:19;;;;;;;7.60;5.03;;;;;;;6.25;59.21;94971.94;4997104;28;20218;-74
2023/12/11 07:57:45;;;;;;;8.10;5.47;;;;;;;6.32;58.66;94973.91;4994060;28;20222;-73
2023/12/11 08:00:11;;;;;;;7.80;4.73;;;;;;;6.25;58.59;94967.53;4985822;28;20187;-73
2023/12/11 08:02:37;;;;;;;7.17;5.10;;;;;;;6.35;58.54;94975.44;4978596;28;20226;-74
2023/12/11 08:05:03;;;;;;;6.60;5.10;;;;;;;6.37;58.69;94978.78;4977121;28;20239;-72
2023/12/11 08:07:28;;;;;;;6.37;4.30;;;;;;;6.26;57.66;94973.63;4981169;28;20226;-76
2023/12/11 08:09:54;;;;;;;6.00;4.23;;;;;;;6.46;57.42;94970.16;4986837;28;20241;-73
2023/12/11 08:12:19;;;;;;;7.17;4.60;;;;;;;6.57;57.27;94967.47;4982879;28;20211;-73
2023/12/11 08:14:45;;;;;;;7.27;5.50;;;;;;;6.49;57.90;94972.50;5001716;28;20250;-75
2023/12/11 08:17:11;;;;;;;8.73;4.70;;;;;;;6.63;57.44;94976.59;4986088;28;20265;-73
2023/12/11 08:19:37;;;;;;;6.27;4.50;;;;;;;6.64;56.52;94975.63;4989316;28;20315;-74
2023/12/11 08:22:03;;;;;;;5.47;4.10;;;;;;;6.56;56.31;94978.06;4986366;28;20237;-69
2023/12/11 08:24:28;;;;;;;6.87;4.37;;;;;;;6.54;56.40;94978.19;4986411;28;20190;-73
2023/12/11 08:26:54;;;;;;;5.63;3.70;;;;;;;6.57;56.00;94975.31;4993087;28;20231;-68
2023/12/11 08:29:21;;;;;;;5.10;4.30;;;;;;;6.62;55.64;94975.75;4991627;28;20219;-75
2023/12/11 08:31:47;;;;;;;6.93;3.00;;;;;;;6.40;55.91;94974.13;4990577;28;20303;-75
2023/12/11 08:34:12;;;;;;;4.90;2.67;;;;;;;6.51;55.86;94968.00;4986987;28;20223;-74
2023/12/11 08:36:38;;;;;;;5.33;3.53;;;;;;;6.76;56.05;94961.56;4986281;28;20231;-71
2023/12/11 08:39:03;;;;;;;5.63;4.87;;;;;;;6.87;56.19;94959.78;4988172;28;20184;-75
2023/12/11 08:41:29;;;;;;;6.90;5.13;;;;;;;7.05;56.13;94966.88;4986343;28;20262;-74
2023/12/11 08:43:55;;;;;;;10.87;5.80;;;;;;;7.14;56.69;94969.69;4973077;28;20227;-73
2023/12/11 08:46:22;;;;;;;7.20;5.93;;;;;;;7.17;56.92;94961.59;4973880;28;20219;-77
2023/12/11 08:48:48;;;;;;;10.67;6.13;;;;;;;7.31;56.49;94958.59;4988277;28;20221;-73
2023/12/11 08:51:17;;;;;;;10.47;6.03;;;;;;;7.43;55.67;94954.06;4980731;28;20183;-72
2023/12/11 08:53:43;;;;;;;7.23;5.53;;;;;;;7.23;56.34;94961.06;4987311;28;20224;-73
2023/12/11 08:56:08;;;;;;;6.33;5.33;;;;;;;6.85;57.53;94952.09;4992811;28;20234;-74
2023/12/11 08:58:34;;;;;;;9.57;5.40;;;;;;;6.92;56.93;94950.59;5004323;28;20215;-73
2023/12/11 09:00:59;;;;;;;7.70;5.50;;;;;;;6.92;56.88;94942.75;4990349;28;20225;-74
2023/12/11 09:03:25;;;;;;;10.20;4.70;;;;;;;6.95;56.06;94941.66;4989399;28;20190;-73
2023/12/11 09:05:51;;;;;;;6.00;4.50;;;;;;;6.82;56.80;94939.28;4992732;28;20303;-71
2023/12/11 09:08:22;;;;;;;6.47;5.53;;;;;;;7.13;56.52;94936.66;4991258;28;20219;-69
2023/12/11 09:10:48;;;;;;;6.10;5.03;;;;;;;7.35;55.68;94941.69;4983554;28;20225;-73
2023/12/11 09:13:13;;;;;;;3.93;3.53;;;;;;;7.04;54.78;94928.63;4987974;28;20223;-76
2023/12/11 09:15:39;;;;;;;4.80;3.20;;;;;;;7.15;53.79;94916.44;4989276;28;20194;-73
2023/12/11 09:18:07;;;;;;;5.70;3.60;;;;;;;7.21;53.26;94913.28;4986003;28;20270;-74
2023/12/11 09:20:33;;;;;;;4.70;3.50;;;;;;;7.36;52.90;94916.34;4990989;28;20224;-75
2023/12/11 09:22:58;;;;;;;8.30;4.67;;;;;;;7.43;52.82;94906.97;4980906;28;20231;-77
2023/12/11 09:25:24;;;;;;;4.53;3.87;;;;;;;7.39;53.02;94906.44;4970520;28;20211;-74
2023/12/11 09:27:49;;;;;;;4.90;3.70;;;;;;;7.31;52.93;94910.69;4964953;28;20224;-75
2023/12/11 09:30:15;;;;;;;5.10;3.53;;;;;;;7.40;52.88;94902.84;4970488;28;20194;-74
2023/12/11 09:32:40;;;;;;;6.27;3.60;;;;;;;7.38;52.93;94896.94;4968426;28;20313;-73
2023/12/11 09:35:07;;;;;;;6.13;4.63;;;;;;;7.28;53.39;94898.72;4968633;28;20590;-75
2023/12/11 09:37:33;;;;;;;5.93;3.70;;;;;;;7.32;52.91;94900.06;4968561;28;20228;-77
2023/12/11 09:39:59;;;;;;;4.53;3.00;;;;;;;7.38;52.68;94896.94;4964828;28;20239;-78
2023/12/11 09:42:26;;;;;;;5.07;3.37;;;;;;;7.41;52.73;94888.00;4966915;28;20199;-79
2023/12/11 09:44:52;;;;;;;3.93;2.60;;;;;;;7.40;52.12;94895.00;4959447;28;20258;-76
2023/12/11 09:47:23;;;;;;;5.70;3.33;;;;;;;7.57;52.00;94897.94;4981148;28;20219;-75
2023/12/11 09:49:49;;;;;;;5.40;3.53;;;;;;;7.67;51.76;94893.50;4987149;28;20242;-76
2023/12/11 09:52:14;;;;;;;5.23;4.37;;;;;;;7.82;51.43;94886.09;4982901;28;20248;-75
2023/12/11 09:54:41;;;;;;;5.80;3.27;;;;;;;8.00;51.19;94879.19;4988687;28;20221;-75
2023/12/11 09:57:13;;;;;;;4.77;3.17;;;;;;;8.13;51.61;94871.06;4987524;28;20306;-69
2023/12/11 09:59:40;;;;;;;9.90;2.73;;;;;;;8.27;50.88;94860.13;4974790;28;20223;-68
2023/12/11 10:02:11;;;;;;;5.50;3.57;;;;;;;8.16;50.39;94863.72;4968219;28;20207;-71
2023/12/11 10:04:36;;;;;;;5.37;3.10;;;;;;;8.29;50.38;94855.56;4986671;28;20242;-72
2023/12/11 10:07:02;;;;;;;5.67;2.70;;;;;;;8.48;49.82;94856.53;4988554;28;20212;-76
2023/12/11 10:09:29;;;;;;;5.73;3.83;;;;;;;8.71;48.90;94859.59;4975429;28;20191;-71
2023/12/11 10:12:03;;;;;;;4.93;3.20;;;;;;;8.66;48.92;94853.97;4988224;28;20239;-76
2023/12/11 10:14:32;;;;;;;4.43;3.27;;;;;;;8.51;48.83;94845.75;4991615;28;20314;-75
2023/12/11 10:16:57;;;;;;;4.00;3.30;;;;;;;8.64;48.68;94858.53;4983873;28;20231;-72
2023/12/11 10:19:33;;;;;;;5.93;3.10;;;;;;;9.01;48.58;94853.28;4980301;28;20231;-76
2023/12/11 10:21:59;;;;;;;4.50;3.87;;;;;;;9.09;48.69;94856.00;4973252;28;20245;-72
2023/12/11 10:24:29;;;;;;;9.23;5.00;;;;;;;9.38;48.78;94853.19;4990955;28;20222;-70
2023/12/11 10:26:55;;;;;;;6.27;4.80;;;;;;;9.38;48.81;94849.72;4993037;28;20211;-72
2023/12/11 10:29:30;;;;;;;8.90;4.97;;;;;;;9.46;48.82;94842.78;4986649;28;20252;-70
2023/12/11 10:32:03;;;;;;;7.37;5.67;;;;;;;9.39;49.13;94843.50;4986536;28;20223;-73
2023/12/11 10:34:42;;;;;;;7.27;5.07;;;;;;;9.52;48.71;94836.09;4988170;28;20219;-78
2023/12/11 10:37:11;;;;;;;6.17;4.57;;;;;;;9.50;48.88;94833.63;4985223;28;20230;-70
2023/12/11 10:39:37;;;;;;;6.60;5.50;;;;;;;9.66;48.37;94834.75;4986478;28;20206;-71
2023/12/11 10:42:14;;;;;;;8.53;4.77;;;;;;;9.87;47.29;94829.19;4989274;28;20206;-72
2023/12/11 10:44:40;;;;;;;6.67;4.43;;;;;;;9.81;47.17;94841.13;4967171;28;20227;-71
2023/12/11 10:47:07;;;;;;;6.33;4.33;;;;;;;10.08;46.51;94845.44;4971966;28;20223;-73
2023/12/11 10:49:33;;;;;;;6.60;4.50;;;;;;;10.24;46.45;94842.09;4966032;28;20244;-70
2023/12/11 10:52:01;;;;;;;8.33;4.57;;;;;;;10.33;45.92;94840.38;4969552;28;20231;-74
2023/12/11 10:54:26;;;;;;;6.33;4.37;;;;;;;10.30;45.74;94827.56;4985529;28;20179;-72
2023/12/11 10:56:53;;;;;;;5.80;5.03;;;;;;;10.07;46.87;94828.00;4989511;28;20234;-70
2023/12/11 10:59:19;;;;;;;5.20;4.27;;;;;;;10.08;47.26;94819.16;4988614;28;20216;-71
2023/12/11 11:01:49;;;;;;;5.50;4.70;;;;;;;10.14;47.36;94826.44;4985489;28;20208;-72
2023/12/11 11:04:18;;;;;;;6.47;5.07;;;;;;;10.22;46.94;94825.66;4971768;28;20281;-71
2023/12/11 11:06:53;;;;;;;7.47;4.97;;;;;;;10.14;47.15;94829.06;4985212;28;20183;-73
2023/12/11 11:09:41;;;;;;;9.60;4.83;;;;;;;10.09;47.42;94819.97;4984203;28;20245;-73
2023/12/11 11:12:16;;;;;;;9.90;5.07;;;;;;;10.39;46.56;94808.22;4992659;28;20211;-82
2023/12/11 11:14:46;;;;;;;6.67;4.47;;;;;;;10.25;46.91;94801.69;4991852;28;20399;-75
2023/12/11 11:17:12;;;;;;;6.23;4.80;;;;;;;10.18;47.02;94808.53;4991668;28;20236;-75
2023/12/11 11:20:13;;;;;;;5.37;4.50;;;;;;;10.30;46.74;94796.00;5000610;28;20231;-76
2023/12/11 11:22:39;;;;;;;9.80;5.53;;;;;;;10.35;46.53;94796.38;4989577;28;20226;-73
2023/12/11 11:25:36;;;;;;;9.47;6.20;;;;;;;10.45;46.13;94791.00;4992129;28;20282;-73
2023/12/11 11:28:02;;;;;;;8.33;5.10;;;;;;;10.41;46.98;94789.66;4897174;29;20234;-69
2023/12/11 11:30:51;;;;;;;7.17;4.77;;;;;;;10.55;46.04;94804.84;4908681;29;20215;-72
2023/12/11 11:33:17;;;;;;;6.13;4.67;;;;;;;10.57;45.91;94806.34;4890801;29;20230;-72
2023/12/11 11:35:45;;;;;;;6.70;4.97;;;;;;;10.47;46.48;94802.19;4894883;29;20234;-71